createdAt,value
2023-12-23T00:01:02.897Z,8.45
2023-12-23T00:03:29.595Z,8.81
2023-12-23T00:05:56.309Z,8.70
2023-12-23T00:08:22.987Z,9.18
2023-12-23T00:10:49.948Z,8.85
2023-12-23T00:13:16.632Z,9.29
2023-12-23T00:15:43.243Z,9.17
2023-12-23T00:18:10.268Z,9.27
2023-12-23T00:20:37.646Z,9.64
2023-12-23T00:23:05.125Z,9.61
2023-12-23T00:25:31.818Z,9.16
2023-12-23T00:27:58.444Z,9.31
2023-12-23T00:30:25.099Z,9.50
2023-12-23T00:32:53.098Z,9.20
2023-12-23T00:35:19.832Z,9.27
2023-12-23T00:37:46.871Z,9.74
2023-12-23T00:40:13.873Z,9.40
2023-12-23T00:42:40.616Z,9.55
2023-12-23T00:45:07.913Z,9.62
2023-12-23T00:47:37.532Z,9.56
2023-12-23T00:50:06.186Z,9.33
2023-12-23T00:52:33.146Z,9.64
2023-12-23T00:55:00.902Z,9.46
2023-12-23T00:57:28.946Z,9.44
2023-12-23T00:59:56.319Z,9.40
2023-12-23T01:02:24.172Z,9.57
2023-12-23T01:04:50.930Z,9.46
2023-12-23T01:07:17.673Z,9.36
2023-12-23T01:09:44.314Z,9.63
2023-12-23T01:12:10.936Z,9.77
2023-12-23T01:14:37.803Z,9.57
2023-12-23T01:17:04.808Z,9.33
2023-12-23T01:19:32.008Z,9.59
2023-12-23T01:21:58.963Z,9.31
2023-12-23T01:24:25.637Z,9.36
2023-12-23T01:26:52.304Z,9.46
2023-12-23T01:29:19.810Z,9.43
2023-12-23T01:31:46.544Z,9.60
2023-12-23T01:34:13.318Z,9.46
2023-12-23T01:36:39.902Z,9.47
2023-12-23T01:39:06.511Z,9.54
2023-12-23T01:41:33.154Z,10.17
2023-12-23T01:43:59.833Z,9.74
2023-12-23T01:46:27.250Z,9.46
2023-12-23T01:48:55.249Z,9.42
2023-12-23T01:51:23.056Z,9.43
2023-12-23T01:53:50.320Z,9.46
2023-12-23T01:56:17.730Z,9.31
2023-12-23T01:58:44.618Z,9.32
2023-12-23T02:01:11.397Z,9.98
2023-12-23T02:03:38.894Z,9.50
2023-12-23T02:06:05.716Z,9.49
2023-12-23T02:08:32.431Z,9.44
2023-12-23T02:11:09.018Z,9.14
2023-12-23T02:13:52.438Z,9.14
2023-12-23T02:16:19.521Z,9.50
2023-12-23T02:18:46.609Z,9.08
2023-12-23T02:21:13.356Z,8.85
2023-12-23T02:23:40.024Z,8.99
2023-12-23T02:26:11.410Z,9.04
2023-12-23T02:28:41.551Z,8.91
2023-12-23T02:31:09.780Z,8.90
2023-12-23T02:33:37.204Z,9.01
2023-12-23T02:36:05.089Z,9.25
2023-12-23T02:38:31.751Z,9.19
2023-12-23T02:40:58.403Z,8.87
2023-12-23T02:43:25.013Z,8.78
2023-12-23T02:45:51.620Z,8.70
2023-12-23T02:48:18.362Z,8.83
2023-12-23T02:50:45.097Z,10.37
2023-12-23T02:53:11.778Z,9.15
2023-12-23T02:55:38.556Z,8.98
2023-12-23T02:58:05.421Z,8.78
2023-12-23T03:00:32.153Z,8.96
2023-12-23T03:02:59.042Z,9.16
2023-12-23T03:05:27.053Z,8.93
2023-12-23T03:07:54.230Z,8.85
2023-12-23T03:10:20.840Z,8.77
2023-12-23T03:12:48.216Z,8.73
2023-12-23T03:15:15.205Z,8.63
2023-12-23T03:17:41.861Z,8.52
2023-12-23T03:20:10.001Z,8.70
2023-12-23T03:22:36.905Z,8.65
2023-12-23T03:25:03.951Z,8.68
2023-12-23T03:27:30.551Z,8.66
2023-12-23T03:29:57.378Z,8.45
2023-12-23T03:32:24.086Z,8.60
2023-12-23T03:34:52.025Z,8.50
2023-12-23T03:37:18.654Z,8.65
2023-12-23T03:39:45.269Z,8.70
2023-12-23T03:42:12.521Z,8.62
2023-12-23T03:44:39.166Z,8.77
2023-12-23T03:47:05.934Z,9.45
2023-12-23T03:49:32.558Z,9.82
2023-12-23T03:52:00.582Z,9.91
2023-12-23T03:54:27.214Z,8.88
2023-12-23T03:56:53.803Z,8.59
2023-12-23T03:59:20.635Z,8.66
2023-12-23T04:01:47.506Z,8.69
2023-12-23T04:04:14.218Z,9.12
2023-12-23T04:06:40.964Z,10.52
2023-12-23T04:09:07.804Z,8.98
2023-12-23T04:11:37.530Z,9.07
2023-12-23T04:14:04.611Z,9.85
2023-12-23T04:16:31.467Z,9.08
2023-12-23T04:18:58.613Z,9.34
2023-12-23T04:21:25.386Z,8.95
2023-12-23T04:23:51.975Z,8.70
2023-12-23T04:26:19.142Z,8.70
2023-12-23T04:28:45.924Z,8.76
2023-12-23T04:31:13.141Z,8.73
2023-12-23T04:33:40.076Z,8.64
2023-12-23T04:36:07.690Z,8.75
2023-12-23T04:38:36.316Z,8.76
2023-12-23T04:41:03.250Z,8.77
2023-12-23T04:43:31.551Z,8.73
2023-12-23T04:45:58.939Z,8.72
2023-12-23T04:48:26.807Z,8.76
2023-12-23T04:50:53.674Z,8.78
2023-12-23T04:53:22.373Z,8.84
2023-12-23T04:55:49.675Z,9.04
2023-12-23T04:58:16.375Z,9.02
2023-12-23T05:00:43.069Z,8.84
2023-12-23T05:03:09.682Z,8.98
2023-12-23T05:05:36.483Z,9.06
2023-12-23T05:08:03.548Z,8.85
2023-12-23T05:10:30.237Z,9.91
2023-12-23T05:12:56.851Z,8.97
2023-12-23T05:15:23.469Z,9.06
2023-12-23T05:17:50.610Z,9.24
2023-12-23T05:20:17.700Z,8.88
2023-12-23T05:22:44.848Z,9.02
2023-12-23T05:25:12.106Z,9.18
2023-12-23T05:27:38.730Z,9.39
2023-12-23T05:30:06.441Z,9.36
2023-12-23T05:32:33.245Z,9.58
2023-12-23T05:35:00.024Z,9.27
2023-12-23T05:37:26.680Z,8.79
2023-12-23T05:39:53.311Z,9.87
2023-12-23T05:42:19.895Z,9.48
2023-12-23T05:44:46.530Z,9.12
2023-12-23T05:47:13.471Z,9.07
2023-12-23T05:49:40.154Z,8.92
2023-12-23T05:52:06.837Z,8.63
2023-12-23T05:54:33.517Z,9.10
2023-12-23T05:57:00.264Z,8.47
2023-12-23T05:59:26.909Z,8.58
2023-12-23T06:01:53.705Z,8.67
2023-12-23T06:04:20.711Z,8.50
2023-12-23T06:06:47.474Z,8.60
2023-12-23T06:09:14.153Z,8.48
2023-12-23T06:11:40.844Z,8.29
2023-12-23T06:14:08.125Z,8.31
2023-12-23T06:16:40.193Z,8.52
2023-12-23T06:19:07.376Z,8.58
2023-12-23T06:21:34.384Z,8.54
2023-12-23T06:24:01.124Z,8.29
2023-12-23T06:26:27.861Z,8.29
2023-12-23T06:28:54.626Z,8.66
2023-12-23T06:31:23.114Z,8.15
2023-12-23T06:33:50.162Z,8.06
2023-12-23T06:36:17.380Z,7.88
2023-12-23T06:38:44.172Z,7.80
2023-12-23T06:41:12.521Z,7.72
2023-12-23T06:43:46.381Z,7.83
2023-12-23T06:46:19.044Z,7.70
2023-12-23T06:48:45.827Z,7.60
2023-12-23T06:51:12.662Z,7.59
2023-12-23T06:53:39.492Z,7.79
2023-12-23T06:56:07.582Z,7.56
2023-12-23T06:58:34.328Z,7.44
2023-12-23T07:01:02.151Z,7.62
2023-12-23T07:03:28.840Z,7.71
2023-12-23T07:05:55.781Z,7.49
2023-12-23T07:08:22.673Z,7.50
2023-12-23T07:10:50.568Z,7.52
2023-12-23T07:13:17.218Z,7.59
2023-12-23T07:15:43.836Z,7.48
2023-12-23T07:18:12.014Z,7.40
2023-12-23T07:20:40.951Z,7.19
2023-12-23T07:23:07.620Z,7.30
2023-12-23T07:25:34.317Z,7.10
2023-12-23T07:28:01.163Z,7.06
2023-12-23T07:30:27.899Z,6.85
2023-12-23T07:32:54.946Z,7.20
2023-12-23T07:35:22.400Z,7.31
2023-12-23T07:37:49.163Z,7.67
2023-12-23T07:40:16.015Z,7.50
2023-12-23T07:42:42.831Z,7.58
2023-12-23T07:45:10.161Z,7.49
2023-12-23T07:47:36.787Z,7.84
2023-12-23T07:50:05.037Z,7.53
2023-12-23T07:52:31.866Z,7.92
2023-12-23T07:54:58.594Z,8.35
2023-12-23T07:57:25.222Z,8.07
2023-12-23T07:59:51.906Z,8.48
2023-12-23T08:02:18.655Z,8.27
2023-12-23T08:04:45.609Z,9.17
2023-12-23T08:07:12.587Z,9.69
2023-12-23T08:09:39.872Z,9.55
2023-12-23T08:12:08.169Z,9.83
2023-12-23T08:14:35.042Z,10.44
2023-12-23T08:17:01.680Z,10.20
2023-12-23T08:19:28.454Z,9.98
2023-12-23T08:21:55.069Z,10.97
2023-12-23T08:24:22.386Z,11.64
2023-12-23T08:26:49.022Z,12.08
2023-12-23T08:29:15.649Z,12.05
2023-12-23T08:31:46.136Z,11.91
2023-12-23T08:34:13.857Z,12.09
2023-12-23T08:36:40.521Z,12.88
2023-12-23T08:39:07.194Z,13.03
2023-12-23T08:41:36.435Z,13.74
2023-12-23T08:44:03.808Z,14.37
2023-12-23T08:46:31.537Z,13.68
2023-12-23T08:48:58.723Z,13.72
2023-12-23T08:51:25.481Z,14.53
2023-12-23T08:53:52.369Z,14.55
2023-12-23T08:56:19.117Z,14.69
2023-12-23T08:58:45.913Z,11.91
2023-12-23T09:01:12.739Z,12.90
2023-12-23T09:03:39.430Z,11.10
2023-12-23T09:06:07.615Z,11.17
2023-12-23T09:08:35.842Z,11.05
2023-12-23T09:11:06.059Z,10.99
2023-12-23T09:13:32.737Z,10.54
2023-12-23T09:16:02.417Z,11.89
2023-12-23T09:18:29.145Z,10.53
2023-12-23T09:20:55.815Z,10.50
2023-12-23T09:23:22.452Z,10.30
2023-12-23T09:25:49.214Z,10.44
2023-12-23T09:28:16.045Z,10.43
2023-12-23T09:30:42.673Z,10.48
2023-12-23T09:33:09.366Z,9.70
2023-12-23T09:35:36.149Z,9.94
2023-12-23T09:38:02.909Z,10.12
2023-12-23T09:40:29.608Z,10.05
2023-12-23T09:42:56.380Z,9.30
2023-12-23T09:45:23.678Z,9.25
2023-12-23T09:47:50.746Z,9.16
2023-12-23T09:50:17.779Z,9.02
2023-12-23T09:52:47.463Z,9.34
2023-12-23T09:55:18.060Z,10.19
2023-12-23T09:57:45.288Z,10.30
2023-12-23T10:00:13.140Z,10.32
2023-12-23T10:02:41.148Z,10.43
2023-12-23T10:05:08.751Z,9.80
2023-12-23T10:07:35.493Z,9.79
2023-12-23T10:10:02.085Z,10.58
2023-12-23T10:12:28.834Z,11.00
2023-12-23T10:14:55.494Z,10.60
2023-12-23T10:17:22.196Z,10.59
2023-12-23T10:19:49.550Z,10.05
2023-12-23T10:22:19.861Z,10.22
2023-12-23T10:24:46.549Z,9.98
2023-12-23T10:27:17.159Z,10.13
2023-12-23T10:29:45.471Z,11.18
2023-12-23T10:32:16.373Z,10.62
2023-12-23T10:34:51.063Z,10.36
2023-12-23T10:37:18.817Z,11.35
2023-12-23T10:39:52.076Z,10.95
2023-12-23T10:42:24.680Z,11.01
2023-12-23T10:44:52.578Z,10.39
2023-12-23T10:47:19.299Z,10.45
2023-12-23T10:49:47.470Z,10.25
2023-12-23T10:52:15.359Z,10.61
2023-12-23T10:54:42.035Z,10.47
2023-12-23T10:57:11.022Z,11.02
2023-12-23T10:59:37.859Z,10.57
2023-12-23T11:02:15.705Z,10.46
2023-12-23T11:04:52.434Z,10.69
2023-12-23T11:07:23.325Z,11.28
2023-12-23T11:09:52.659Z,10.70
2023-12-23T11:12:19.664Z,11.46
2023-12-23T11:14:47.587Z,10.93
2023-12-23T11:17:32.773Z,11.35
2023-12-23T11:20:01.160Z,10.61
2023-12-23T11:22:39.039Z,10.32
2023-12-23T11:25:39.562Z,10.21
2023-12-23T11:28:14.298Z,10.66
2023-12-23T11:30:51.727Z,10.55
2023-12-23T11:33:23.038Z,10.80
2023-12-23T11:35:51.010Z,10.66
2023-12-23T11:38:17.699Z,10.96
2023-12-23T11:40:44.888Z,10.55
2023-12-23T11:43:11.536Z,10.96
2023-12-23T11:45:41.059Z,10.89
2023-12-23T11:48:08.838Z,11.08
2023-12-23T11:50:35.579Z,10.63
2023-12-23T11:53:02.427Z,10.25
2023-12-23T11:55:29.624Z,10.87
2023-12-23T11:57:56.530Z,10.50
2023-12-23T12:00:23.242Z,10.39
2023-12-23T12:02:50.138Z,10.59
2023-12-23T12:05:16.997Z,10.64
2023-12-23T12:07:43.811Z,10.55
2023-12-23T12:10:11.497Z,10.57
2023-12-23T12:12:38.975Z,10.54
2023-12-23T12:15:06.143Z,10.58
2023-12-23T12:17:33.315Z,10.13
2023-12-23T12:20:01.392Z,10.98
2023-12-23T12:22:28.142Z,10.96
2023-12-23T12:24:54.858Z,10.34
2023-12-23T12:27:21.790Z,10.70
2023-12-23T12:29:48.376Z,10.98
2023-12-23T12:32:15.046Z,10.92
2023-12-23T12:34:43.417Z,10.93
2023-12-23T12:37:11.313Z,10.44
2023-12-23T12:39:37.991Z,10.54
2023-12-23T12:42:04.991Z,11.00
2023-12-23T12:44:33.534Z,11.58
2023-12-23T12:47:00.230Z,10.75
2023-12-23T12:49:27.091Z,11.27
2023-12-23T12:51:54.526Z,10.26
2023-12-23T12:54:25.576Z,10.85
2023-12-23T12:56:52.352Z,10.87
2023-12-23T12:59:19.180Z,11.63
2023-12-23T13:01:45.978Z,11.39
2023-12-23T13:04:12.634Z,10.78
2023-12-23T13:06:39.232Z,11.05
2023-12-23T13:09:06.037Z,10.90
2023-12-23T13:11:33.729Z,10.73
2023-12-23T13:14:00.645Z,10.97
2023-12-23T13:16:27.393Z,11.40
2023-12-23T13:18:59.941Z,10.93
2023-12-23T13:21:28.748Z,11.34
2023-12-23T13:23:55.660Z,11.43
2023-12-23T13:26:22.429Z,11.23
2023-12-23T13:28:52.151Z,10.68
2023-12-23T13:31:20.662Z,11.02
2023-12-23T13:33:47.479Z,10.50
2023-12-23T13:36:14.324Z,9.96
2023-12-23T13:38:44.714Z,10.04
2023-12-23T13:41:14.491Z,9.48
2023-12-23T13:43:41.271Z,9.51
2023-12-23T13:46:07.977Z,9.62
2023-12-23T13:48:34.652Z,9.16
2023-12-23T13:51:01.793Z,9.61
2023-12-23T13:53:28.585Z,10.06
2023-12-23T13:55:55.279Z,9.50
2023-12-23T13:58:21.968Z,9.01
2023-12-23T14:00:48.623Z,9.36
2023-12-23T14:03:16.560Z,8.99
2023-12-23T14:05:44.128Z,8.85
2023-12-23T14:08:10.922Z,9.05
2023-12-23T14:10:37.576Z,8.35
2023-12-23T14:13:04.419Z,8.40
2023-12-23T14:15:31.075Z,8.57
2023-12-23T14:17:57.807Z,8.12
2023-12-23T14:20:24.575Z,7.85
2023-12-23T14:22:53.189Z,8.09
2023-12-23T14:25:20.133Z,8.04
2023-12-23T14:27:46.835Z,7.73
2023-12-23T14:30:14.423Z,7.65
2023-12-23T14:32:41.865Z,7.84
2023-12-23T14:35:10.595Z,7.86
2023-12-23T14:37:45.125Z,7.67
2023-12-23T14:40:17.111Z,8.07
2023-12-23T14:42:43.868Z,8.62
2023-12-23T14:45:10.698Z,7.91
2023-12-23T14:47:37.613Z,7.74
2023-12-23T14:50:04.850Z,7.70
2023-12-23T14:52:31.533Z,7.66
2023-12-23T14:54:58.215Z,7.65
2023-12-23T14:57:25.961Z,7.50
2023-12-23T14:59:52.605Z,7.72
2023-12-23T15:02:19.810Z,7.82
2023-12-23T15:04:46.580Z,7.78
2023-12-23T15:07:13.309Z,7.72
2023-12-23T15:09:40.006Z,7.74
2023-12-23T15:12:06.849Z,7.91
2023-12-23T15:14:33.514Z,8.00
2023-12-23T15:17:01.381Z,8.23
2023-12-23T15:19:28.289Z,8.31
2023-12-23T15:21:56.611Z,8.42
2023-12-23T15:24:24.788Z,8.56
2023-12-23T15:26:51.467Z,8.73
2023-12-23T15:29:18.619Z,9.10
2023-12-23T15:31:45.345Z,9.06
2023-12-23T15:34:12.078Z,9.21
2023-12-23T15:36:38.773Z,9.32
2023-12-23T15:39:05.463Z,9.52
2023-12-23T15:41:32.362Z,9.56
2023-12-23T15:43:59.167Z,9.80
2023-12-23T15:46:25.806Z,9.66
2023-12-23T15:48:52.673Z,9.68
2023-12-23T15:51:19.955Z,9.54
2023-12-23T15:53:46.702Z,9.68
2023-12-23T15:56:14.175Z,9.78
2023-12-23T15:58:41.743Z,9.73
2023-12-23T16:01:08.716Z,9.91
2023-12-23T16:03:35.410Z,9.96
2023-12-23T16:06:02.448Z,9.83
2023-12-23T16:08:29.313Z,10.42
2023-12-23T16:10:55.980Z,10.02
2023-12-23T16:13:24.241Z,9.84
2023-12-23T16:15:50.867Z,9.81
2023-12-23T16:18:17.604Z,9.87
2023-12-23T16:20:44.260Z,9.78
2023-12-23T16:23:10.909Z,9.78
2023-12-23T16:25:37.525Z,9.76
2023-12-23T16:28:04.347Z,9.35
2023-12-23T16:30:31.031Z,9.41
2023-12-23T16:32:57.813Z,9.70
2023-12-23T16:35:24.570Z,9.49
2023-12-23T16:37:51.395Z,9.62
2023-12-23T16:40:18.023Z,9.57
2023-12-23T16:42:44.760Z,9.52
2023-12-23T16:45:15.672Z,9.37
2023-12-23T16:47:45.689Z,9.42
2023-12-23T16:50:14.122Z,9.49
2023-12-23T16:52:41.390Z,9.37
2023-12-23T16:55:08.508Z,9.45
2023-12-23T16:57:35.124Z,9.45
2023-12-23T17:00:02.002Z,9.68
2023-12-23T17:02:28.951Z,9.71
2023-12-23T17:04:55.744Z,9.75
2023-12-23T17:07:22.474Z,9.95
2023-12-23T17:09:49.181Z,10.07
2023-12-23T17:12:16.211Z,9.98
2023-12-23T17:14:42.877Z,9.89
2023-12-23T17:17:10.581Z,10.14
2023-12-23T17:19:37.277Z,10.34
2023-12-23T17:22:04.189Z,10.37
2023-12-23T17:24:30.800Z,10.15
2023-12-23T17:26:57.449Z,10.13
2023-12-23T17:29:24.098Z,10.31
2023-12-23T17:31:50.898Z,10.51
2023-12-23T17:34:17.638Z,10.07
2023-12-23T17:36:44.351Z,10.54
2023-12-23T17:39:11.090Z,10.50
2023-12-23T17:41:38.436Z,10.38
2023-12-23T17:44:05.499Z,10.23
2023-12-23T17:46:32.144Z,10.38
2023-12-23T17:48:59.011Z,10.57
2023-12-23T17:51:25.716Z,10.56
2023-12-23T17:53:52.435Z,10.55
2023-12-23T17:56:22.254Z,10.42
2023-12-23T17:58:48.986Z,10.60
2023-12-23T18:01:15.797Z,10.52
2023-12-23T18:03:42.592Z,10.39
2023-12-23T18:06:10.122Z,10.39
2023-12-23T18:08:37.419Z,10.41
2023-12-23T18:11:04.438Z,10.39
2023-12-23T18:13:31.188Z,10.80
2023-12-23T18:15:57.781Z,10.50
2023-12-23T18:18:24.466Z,11.03
2023-12-23T18:20:52.944Z,11.50
2023-12-23T18:23:19.879Z,10.70
2023-12-23T18:25:46.538Z,10.76
2023-12-23T18:28:14.021Z,10.47
2023-12-23T18:30:42.149Z,10.78
2023-12-23T18:33:08.985Z,10.32
2023-12-23T18:35:35.846Z,10.27
2023-12-23T18:38:02.580Z,10.12
2023-12-23T18:40:29.251Z,10.18
2023-12-23T18:43:00.007Z,10.16
2023-12-23T18:45:26.774Z,10.40
2023-12-23T18:47:53.694Z,10.45
2023-12-23T18:50:20.442Z,10.43
2023-12-23T18:52:47.090Z,10.13
2023-12-23T18:55:13.970Z,10.56
2023-12-23T18:57:41.534Z,10.94
2023-12-23T19:00:09.811Z,10.62
2023-12-23T19:02:36.878Z,10.38
2023-12-23T19:05:03.926Z,10.38
2023-12-23T19:07:30.779Z,10.61
2023-12-23T19:09:57.423Z,10.42
2023-12-23T19:12:24.781Z,11.05
2023-12-23T19:14:51.487Z,10.63
2023-12-23T19:17:18.310Z,10.63
2023-12-23T19:19:46.678Z,10.49
2023-12-23T19:22:14.016Z,10.45
2023-12-23T19:24:40.747Z,10.28
2023-12-23T19:27:07.475Z,10.10
2023-12-23T19:29:38.128Z,9.98
2023-12-23T19:32:05.476Z,9.93
2023-12-23T19:34:32.203Z,9.92
2023-12-23T19:36:58.797Z,9.95
2023-12-23T19:39:25.575Z,9.97
2023-12-23T19:41:52.256Z,9.65
2023-12-23T19:44:22.823Z,9.49
2023-12-23T19:46:49.578Z,9.54
2023-12-23T19:49:16.290Z,9.88
2023-12-23T19:51:42.994Z,10.07
2023-12-23T19:54:09.619Z,10.36
2023-12-23T19:56:36.402Z,10.42
2023-12-23T19:59:04.923Z,10.60
2023-12-23T20:01:31.846Z,10.39
2023-12-23T20:03:59.150Z,10.33
2023-12-23T20:06:25.904Z,10.53
2023-12-23T20:08:52.648Z,10.29
2023-12-23T20:11:28.602Z,10.40
2023-12-23T20:13:55.313Z,10.51
2023-12-23T20:16:28.668Z,10.58
2023-12-23T20:18:56.254Z,10.87
2023-12-23T20:21:23.756Z,10.45
2023-12-23T20:23:53.868Z,10.43
2023-12-23T20:26:21.043Z,10.50
2023-12-23T20:28:48.291Z,10.63
2023-12-23T20:31:16.030Z,10.68
2023-12-23T20:33:43.026Z,10.66
2023-12-23T20:36:09.816Z,10.62
2023-12-23T20:38:36.484Z,10.63
2023-12-23T20:41:03.334Z,10.70
2023-12-23T20:43:30.301Z,10.77
2023-12-23T20:45:56.976Z,10.82
2023-12-23T20:48:23.947Z,10.76
2023-12-23T20:50:52.920Z,10.72
2023-12-23T20:53:21.648Z,10.76
2023-12-23T20:55:48.718Z,10.77
2023-12-23T20:58:15.362Z,10.85
2023-12-23T21:00:41.990Z,11.17
2023-12-23T21:03:08.739Z,11.55
2023-12-23T21:05:35.821Z,11.38
2023-12-23T21:08:02.568Z,11.04
2023-12-23T21:10:29.369Z,11.23
2023-12-23T21:12:57.092Z,10.96
2023-12-23T21:15:23.712Z,10.72
2023-12-23T21:17:50.458Z,10.56
2023-12-23T21:20:17.472Z,9.60
2023-12-23T21:22:44.183Z,9.38
2023-12-23T21:25:10.956Z,10.13
2023-12-23T21:27:37.612Z,9.29
2023-12-23T21:30:05.285Z,10.28
2023-12-23T21:32:32.139Z,9.67
2023-12-23T21:34:59.141Z,9.43
2023-12-23T21:37:25.804Z,9.94
2023-12-23T21:39:52.436Z,9.37
2023-12-23T21:42:19.032Z,9.02
2023-12-23T21:44:45.661Z,9.13
2023-12-23T21:47:12.553Z,9.08
2023-12-23T21:49:39.473Z,9.19
2023-12-23T21:52:06.526Z,9.21
2023-12-23T21:54:33.153Z,9.16
2023-12-23T21:57:00.772Z,9.50
2023-12-23T21:59:27.501Z,9.35
2023-12-23T22:01:54.210Z,9.09
2023-12-23T22:04:20.859Z,8.79
2023-12-23T22:06:47.431Z,9.36
2023-12-23T22:09:14.015Z,9.51
2023-12-23T22:11:40.743Z,10.07
2023-12-23T22:14:07.439Z,9.63
2023-12-23T22:16:34.102Z,9.47
2023-12-23T22:19:00.758Z,10.12
2023-12-23T22:21:27.453Z,9.71
2023-12-23T22:23:54.096Z,9.77
2023-12-23T22:26:20.729Z,9.96
2023-12-23T22:28:47.369Z,10.11
2023-12-23T22:31:14.328Z,10.60
2023-12-23T22:33:41.128Z,10.48
2023-12-23T22:36:10.650Z,10.33
2023-12-23T22:38:37.423Z,10.51
2023-12-23T22:41:05.901Z,10.67
2023-12-23T22:43:33.033Z,10.29
2023-12-23T22:45:59.685Z,10.06
2023-12-23T22:48:26.433Z,9.98
2023-12-23T22:50:53.280Z,9.75
2023-12-23T22:53:19.941Z,9.65
2023-12-23T22:55:46.633Z,9.56
2023-12-23T22:58:13.293Z,9.43
2023-12-23T23:00:40.319Z,9.54
2023-12-23T23:03:07.046Z,9.49
2023-12-23T23:05:33.813Z,9.50
2023-12-23T23:08:01.971Z,9.74
2023-12-23T23:10:28.666Z,9.24
2023-12-23T23:12:55.229Z,9.07
2023-12-23T23:15:21.867Z,9.05
2023-12-23T23:17:48.795Z,8.74
2023-12-23T23:20:18.460Z,8.64
2023-12-23T23:22:45.150Z,8.85
2023-12-23T23:25:11.754Z,8.78
2023-12-23T23:27:38.440Z,8.55
2023-12-23T23:30:05.707Z,8.53
2023-12-23T23:32:32.623Z,8.35
2023-12-23T23:35:05.261Z,8.22
2023-12-23T23:37:37.828Z,7.97
2023-12-23T23:40:04.720Z,8.01
2023-12-23T23:42:31.373Z,8.23
2023-12-23T23:44:58.078Z,7.94
2023-12-23T23:47:24.790Z,8.15
2023-12-23T23:49:51.617Z,8.32
2023-12-23T23:52:18.257Z,8.13
2023-12-23T23:54:44.885Z,7.93
2023-12-23T23:57:11.508Z,8.56
2023-12-23T23:59:38.196Z,8.28
